Time;durP1;ratioP1;P1;durP2;ratioP2;P2;SDS_P1;SDS_P2;PMS_P1;PMS_P2;Temp;Humidity;BMP_temperature;BMP_pressure;BME280_temperature;BME280_humidity;BME280_pressure;Samples;Min_cycle;Max_cycle;Signal;HPM_P1;HPM_P2
2023/02/19 00:00:23;;;;;;;;;;;;;;;19.44;62.47;100829.97;7401132;19;2145;-42
2023/02/19 00:02:52;;;;;;;;;;;;;;;19.08;63.21;100808.94;7403615;19;1764;-42
2023/02/19 00:05:20;;;;;;;;;;;;;;;18.72;64.06;100796.03;7403325;19;2171;-41
2023/02/19 00:07:51;;;;;;;;;;;;;;;18.53;64.49;100786.94;7402950;19;2048;-42
2023/02/19 00:10:19;;;;;;;;;;;;;;;18.63;64.43;100801.22;7402255;19;2065;-42
2023/02/19 00:12:48;;;;;;;;;;;;;;;19.34;62.56;100787.03;7401375;19;1876;-42
2023/02/19 00:15:17;;;;;;;;;;;;;;;19.31;62.69;100786.44;7402921;19;2056;-42
2023/02/19 00:17:45;;;;;;;;;;;;;;;18.85;63.65;100791.34;7404052;19;2362;-42
2023/02/19 00:20:14;;;;;;;;;;;;;;;18.52;64.79;100785.22;7401401;19;2102;-42
2023/02/19 00:22:42;;;;;;;;;;;;;;;18.47;64.74;100776.75;7401951;19;2022;-42
2023/02/19 00:25:13;;;;;;;;;;;;;;;18.95;63.23;100781.53;7403207;19;2046;-42
2023/02/19 00:27:42;;;;;;;;;;;;;;;19.45;61.68;100776.16;7402574;19;1926;-42
2023/02/19 00:30:11;;;;;;;;;;;;;;;19.04;63.33;100771.84;7400741;19;2227;-42
2023/02/19 00:32:39;;;;;;;;;;;;;;;18.63;64.01;100763.72;7402721;19;1941;-42
2023/02/19 00:35:07;;;;;;;;;;;;;;;18.37;64.76;100770.50;7402397;19;1229;-42
2023/02/19 00:37:36;;;;;;;;;;;;;;;18.76;63.75;100765.31;7402153;19;2210;-42
2023/02/19 00:40:04;;;;;;;;;;;;;;;19.36;61.88;100774.31;7400863;19;2197;-42
2023/02/19 00:42:35;;;;;;;;;;;;;;;19.23;62.51;100754.97;7401735;19;2101;-42
2023/02/19 00:45:03;;;;;;;;;;;;;;;18.75;64.07;100764.47;7401630;19;2097;-42
2023/02/19 00:47:31;;;;;;;;;;;;;;;18.37;64.58;100765.97;7401856;19;1893;-42
2023/02/19 00:50:00;;;;;;;;;;;;;;;18.66;64.25;100770.63;7402382;19;1735;-42
2023/02/19 00:52:28;;;;;;;;;;;;;;;19.13;62.49;100760.28;7401759;19;2104;-42
2023/02/19 00:54:56;;;;;;;;;;;;;;;19.35;61.73;100772.63;7401642;19;2047;-42
2023/02/19 00:57:25;;;;;;;;;;;;;;;18.82;63.42;100748.75;7402231;19;2009;-42
2023/02/19 00:59:55;;;;;;;;;;;;;;;18.43;64.62;100752.06;7401220;19;1919;-42
2023/02/19 01:02:25;;;;;;;;;;;;;;;18.43;64.25;100753.91;7401700;19;2168;-42
2023/02/19 01:04:53;;;;;;;;;;;;;;;18.95;63.12;100760.09;7402140;19;2223;-42
2023/02/19 01:07:22;;;;;;;;;;;;;;;19.44;61.89;100753.03;7400015;19;2059;-42
2023/02/19 01:09:50;;;;;;;;;;;;;;;19.00;62.86;100754.31;7401089;19;2100;-42
2023/02/19 01:12:18;;;;;;;;;;;;;;;18.54;64.01;100751.13;7400096;19;2028;-42
2023/02/19 01:14:47;;;;;;;;;;;;;;;18.34;64.71;100743.97;7402248;19;1647;-42
2023/02/19 01:17:18;;;;;;;;;;;;;;;18.80;63.57;100764.09;7400332;19;2155;-42
2023/02/19 01:19:46;;;;;;;;;;;;;;;19.34;61.74;100736.09;7400682;19;1906;-42
2023/02/19 01:22:14;;;;;;;;;;;;;;;19.16;62.37;100746.63;7399920;19;2062;-42
2023/02/19 01:24:42;;;;;;;;;;;;;;;18.71;63.53;100757.69;7400540;19;2052;-42
2023/02/19 01:27:11;;;;;;;;;;;;;;;18.36;64.38;100758.91;7399578;19;2045;-42
2023/02/19 01:29:39;;;;;;;;;;;;;;;18.43;63.97;100772.63;7399753;19;2040;-42
2023/02/19 01:32:07;;;;;;;;;;;;;;;19.00;62.42;100760.53;7400815;19;1795;-42
2023/02/19 01:34:38;;;;;;;;;;;;;;;19.25;61.56;100769.06;7401317;19;1221;-42
2023/02/19 01:37:09;;;;;;;;;;;;;;;18.73;63.20;100769.13;7399383;19;2191;-42
2023/02/19 01:39:38;;;;;;;;;;;;;;;18.37;64.46;100755.25;7400099;19;2157;-42
2023/02/19 01:42:06;;;;;;;;;;;;;;;18.37;64.08;100765.97;7397647;19;2236;-42
2023/02/19 01:44:49;;;;;;;;;;;;;;;18.97;62.77;100752.75;7399083;19;1833;-42
2023/02/19 01:47:19;;;;;;;;;;;;;;;19.24;61.90;100748.63;7399035;19;2073;-42
2023/02/19 01:49:53;;;;;;;;;;;;;;;18.72;63.13;100770.13;7399969;19;2077;-42
2023/02/19 01:52:25;;;;;;;;;;;;;;;18.31;64.45;100744.25;7398970;19;2119;-42
2023/02/19 01:54:54;;;;;;;;;;;;;;;18.43;64.11;100759.25;7399723;19;2087;-42
2023/02/19 01:57:24;;;;;;;;;;;;;;;19.10;62.13;100757.03;7399763;19;2002;-42
2023/02/19 01:59:54;;;;;;;;;;;;;;;19.17;62.02;100748.31;7399960;19;2060;-42
2023/02/19 02:02:23;;;;;;;;;;;;;;;18.68;62.83;100753.47;7399161;19;1807;-42
2023/02/19 02:04:55;;;;;;;;;;;;;;;18.33;64.29;100758.34;7399876;19;1560;-42
2023/02/19 02:12:45;;;;;;;;;;;;;;;19.22;61.65;100745.22;7398947;19;2176;-42
2023/02/19 02:15:14;;;;;;;;;;;;;;;18.71;62.97;100770.25;7398771;19;2201;-42
2023/02/19 02:17:48;;;;;;;;;;;;;;;18.33;64.12;100766.38;7400269;19;2183;-42
2023/02/19 02:20:33;;;;;;;;;;;;;;;18.35;64.05;100775.13;7406138;19;2084;-42
2023/02/19 02:23:04;;;;;;;;;;;;;;;18.97;62.09;100776.03;7406682;19;1703;-42
2023/02/19 02:25:44;;;;;;;;;;;;;;;19.28;61.24;100785.75;7406120;19;2042;-42
2023/02/19 02:28:21;;;;;;;;;;;;;;;18.77;62.78;100788.47;7407539;19;1836;-42
2023/02/19 02:30:54;;;;;;;;;;;;;;;18.31;63.96;100774.53;7406404;19;2107;-42
2023/02/19 02:33:28;;;;;;;;;;;;;;;18.27;64.09;100787.31;7406199;19;1814;-42
2023/02/19 02:35:59;;;;;;;;;;;;;;;18.83;62.68;100782.59;7403110;19;1867;-42
2023/02/19 02:38:29;;;;;;;;;;;;;;;19.44;60.99;100777.16;7406253;19;2170;-42
2023/02/19 02:40:59;;;;;;;;;;;;;;;18.93;62.08;100769.25;7404970;19;2111;-42
2023/02/19 02:43:27;;;;;;;;;;;;;;;18.45;63.40;100773.34;7407132;19;2125;-42
2023/02/19 02:45:58;;;;;;;;;;;;;;;18.24;64.23;100778.69;7406324;19;1926;-43
2023/02/19 02:48:30;;;;;;;;;;;;;;;18.73;63.01;100805.78;7406891;19;1754;-42
2023/02/19 02:51:00;;;;;;;;;;;;;;;19.60;60.62;100778.47;7406155;19;2256;-42
2023/02/19 02:56:12;;;;;;;;;;;;;;;20.53;58.03;100787.78;7406024;19;1986;-42
2023/02/19 02:58:41;;;;;;;;;;;;;;;20.34;58.51;100801.25;7405972;19;2208;-42
2023/02/19 03:03:59;;;;;;;;;;;;;;;20.34;58.83;100812.81;7406816;19;2082;-42
2023/02/19 03:06:30;;;;;;;;;;;;;;;20.22;58.62;100804.06;7402639;19;2189;-42
2023/02/19 03:09:01;;;;;;;;;;;;;;;20.14;58.87;100801.25;7405386;19;1690;-42
2023/02/19 03:19:45;;;;;;;;;;;;;;;20.31;58.96;100810.41;7405596;19;2020;-42
2023/02/19 03:22:16;;;;;;;;;;;;;;;20.26;58.95;100818.06;7403328;19;2389;-42
2023/02/19 03:27:30;;;;;;;;;;;;;;;20.32;58.90;100822.03;7405778;19;1646;-42
2023/02/19 03:30:00;;;;;;;;;;;;;;;20.33;58.65;100799.53;7403466;19;1931;-41
2023/02/19 03:32:34;;;;;;;;;;;;;;;20.38;58.66;100813.41;7404392;19;2045;-42
2023/02/19 03:35:04;;;;;;;;;;;;;;;20.54;58.20;100816.31;7405018;19;1240;-42
2023/02/19 03:37:37;;;;;;;;;;;;;;;20.36;58.57;100810.00;7404342;19;2154;-42
2023/02/19 03:40:06;;;;;;;;;;;;;;;20.27;58.86;100809.88;7404084;19;2158;-42
2023/02/19 03:42:40;;;;;;;;;;;;;;;20.27;58.68;100827.81;7401983;19;2174;-42
2023/02/19 03:45:16;;;;;;;;;;;;;;;20.37;58.58;100822.44;7403739;19;2120;-42
2023/02/19 03:47:49;;;;;;;;;;;;;;;20.37;58.63;100812.56;7403867;19;2153;-42
2023/02/19 03:50:19;;;;;;;;;;;;;;;20.36;58.40;100820.75;7404397;19;1961;-42
2023/02/19 03:52:55;;;;;;;;;;;;;;;20.44;58.39;100823.56;7404651;19;2117;-42
2023/02/19 03:55:27;;;;;;;;;;;;;;;20.49;58.28;100840.06;7403143;19;2135;-42
2023/02/19 03:57:58;;;;;;;;;;;;;;;20.53;58.45;100838.81;7403534;19;2114;-42
2023/02/19 04:00:31;;;;;;;;;;;;;;;20.37;58.62;100834.03;7402835;19;2116;-41
2023/02/19 04:03:07;;;;;;;;;;;;;;;19.68;60.30;100837.63;7403652;19;2018;-42
2023/02/19 04:05:39;;;;;;;;;;;;;;;19.10;61.94;100834.75;7402808;19;2062;-42
2023/02/19 04:08:11;;;;;;;;;;;;;;;18.78;62.55;100822.28;7403684;19;1893;-42
2023/02/19 04:10:41;;;;;;;;;;;;;;;18.61;63.56;100827.28;7404478;19;1454;-42
2023/02/19 04:13:12;;;;;;;;;;;;;;;18.49;63.26;100831.00;7402715;19;2287;-42
2023/02/19 04:15:43;;;;;;;;;;;;;;;18.47;63.32;100832.97;7402229;19;2013;-42
2023/02/19 04:18:16;;;;;;;;;;;;;;;18.94;62.34;100844.16;7403018;19;1707;-42
2023/02/19 04:20:45;;;;;;;;;;;;;;;19.38;61.04;100871.56;7402459;19;2040;-42
2023/02/19 04:23:14;;;;;;;;;;;;;;;19.39;60.91;100856.31;7403187;19;2067;-42
2023/02/19 04:25:45;;;;;;;;;;;;;;;18.95;62.17;100851.19;7402867;19;1641;-42
2023/02/19 04:28:15;;;;;;;;;;;;;;;18.59;63.32;100850.69;7402392;19;2220;-42
2023/02/19 04:30:43;;;;;;;;;;;;;;;18.42;63.51;100864.63;7402457;19;2180;-42
2023/02/19 04:33:14;;;;;;;;;;;;;;;18.88;62.26;100858.09;7401515;19;2225;-42
2023/02/19 04:35:43;;;;;;;;;;;;;;;19.26;61.08;100875.34;7401387;19;1997;-42
2023/02/19 04:38:12;;;;;;;;;;;;;;;19.32;60.96;100865.88;7402206;19;2092;-42
2023/02/19 04:40:40;;;;;;;;;;;;;;;18.86;62.03;100870.75;7401128;19;1850;-42
2023/02/19 04:43:09;;;;;;;;;;;;;;;18.47;63.43;100862.44;7402481;19;1728;-42
2023/02/19 04:45:38;;;;;;;;;;;;;;;18.44;63.03;100862.69;7402508;19;2174;-42
2023/02/19 04:48:07;;;;;;;;;;;;;;;18.88;62.18;100866.97;7401295;19;2216;-42
2023/02/19 04:50:39;;;;;;;;;;;;;;;19.43;60.77;100872.00;7402026;19;2015;-42
2023/02/19 04:53:07;;;;;;;;;;;;;;;19.32;60.78;100873.94;7401711;19;2006;-42
2023/02/19 04:55:38;;;;;;;;;;;;;;;18.79;61.99;100866.88;7401842;19;2018;-41
2023/02/19 04:58:06;;;;;;;;;;;;;;;18.44;63.33;100870.72;7402588;19;1957;-42
2023/02/19 05:00:34;;;;;;;;;;;;;;;18.45;63.22;100869.75;7401877;19;2077;-42
2023/02/19 05:03:03;;;;;;;;;;;;;;;18.84;62.00;100870.91;7399303;19;1878;-42
2023/02/19 05:05:31;;;;;;;;;;;;;;;19.39;61.04;100881.31;7401608;19;1737;-42
2023/02/19 05:08:02;;;;;;;;;;;;;;;19.37;60.83;100877.06;7401461;19;1624;-42
2023/02/19 05:10:30;;;;;;;;;;;;;;;18.89;61.28;100891.94;7400504;19;2055;-42
2023/02/19 05:12:58;;;;;;;;;;;;;;;18.47;63.05;100889.22;7400067;19;1922;-42
2023/02/19 05:15:27;;;;;;;;;;;;;;;18.40;63.10;100899.59;7400575;19;2130;-42
2023/02/19 05:17:55;;;;;;;;;;;;;;;18.84;62.40;100911.09;7401467;19;1841;-42
2023/02/19 05:20:24;;;;;;;;;;;;;;;19.26;61.01;100910.19;7400419;19;1781;-42
2023/02/19 05:22:52;;;;;;;;;;;;;;;19.28;60.87;100911.75;7397651;19;1842;-42
2023/02/19 05:25:23;;;;;;;;;;;;;;;18.78;62.11;100913.38;7398900;19;2050;-41
2023/02/19 05:28:15;;;;;;;;;;;;;;;18.38;63.29;100920.28;7400318;19;2111;-41
2023/02/19 05:30:39;;;;;;;;;;;;;;;18.60;62.66;100924.69;7399837;19;2120;-42
2023/02/19 05:33:08;;;;;;;;;;;;;;;18.97;62.04;100913.56;7400312;19;2109;-42
2023/02/19 05:35:36;;;;;;;;;;;;;;;19.36;60.60;100929.84;7399124;19;2175;-42
2023/02/19 05:38:04;;;;;;;;;;;;;;;19.14;61.05;100935.38;7400232;19;1979;-42
2023/02/19 05:40:35;;;;;;;;;;;;;;;18.65;62.57;100933.19;7400729;19;1597;-42
2023/02/19 05:43:04;;;;;;;;;;;;;;;18.36;63.16;100956.19;7399662;19;1851;-42
2023/02/19 05:45:32;;;;;;;;;;;;;;;18.59;62.64;100952.44;7400488;19;2016;-42
2023/02/19 05:48:00;;;;;;;;;;;;;;;18.94;61.63;100956.72;7400477;19;1989;-42
2023/02/19 05:50:29;;;;;;;;;;;;;;;19.37;60.79;100963.72;7399647;19;2076;-42
2023/02/19 05:52:57;;;;;;;;;;;;;;;19.01;61.79;100968.59;7404924;19;2080;-42
2023/02/19 05:55:25;;;;;;;;;;;;;;;18.67;63.17;100976.75;7407117;19;1877;-42
2023/02/19 05:57:56;;;;;;;;;;;;;;;18.45;64.18;100995.59;7407275;19;2331;-42
2023/02/19 06:00:26;;;;;;;;;;;;;;;18.71;63.52;100971.16;7405055;19;2211;-42
2023/02/19 06:02:54;;;;;;;;;;;;;;;19.11;62.50;100984.75;7404767;19;1862;-42
2023/02/19 06:05:23;;;;;;;;;;;;;;;19.46;61.44;100973.66;7406493;19;1399;-42
2023/02/19 06:07:52;;;;;;;;;;;;;;;19.13;62.69;100993.50;7406593;19;1718;-42
2023/02/19 06:10:20;;;;;;;;;;;;;;;18.76;63.57;100985.00;7405867;19;1643;-42
2023/02/19 06:12:48;;;;;;;;;;;;;;;18.57;64.26;100991.91;7405630;19;1868;-42
2023/02/19 06:15:19;;;;;;;;;;;;;;;18.99;62.70;100989.31;7406005;19;1703;-42
2023/02/19 06:17:47;;;;;;;;;;;;;;;19.41;61.44;101013.41;7405325;19;2055;-42
2023/02/19 06:20:16;;;;;;;;;;;;;;;19.41;61.70;101008.06;7404027;19;2052;-41
2023/02/19 06:22:44;;;;;;;;;;;;;;;19.07;62.83;101021.66;7403554;19;2159;-42
2023/02/19 06:25:12;;;;;;;;;;;;;;;18.81;63.86;101013.16;7402994;19;1832;-41
2023/02/19 06:27:41;;;;;;;;;;;;;;;18.67;64.38;101019.63;7406572;19;1868;-42
2023/02/19 06:30:10;;;;;;;;;;;;;;;19.06;63.05;101029.88;7404689;19;2102;-42
2023/02/19 06:32:41;;;;;;;;;;;;;;;19.54;62.08;101023.97;7404785;19;1951;-42
2023/02/19 06:35:09;;;;;;;;;;;;;;;19.34;62.77;101017.63;7406262;19;1829;-41
2023/02/19 06:37:37;;;;;;;;;;;;;;;19.08;63.22;101015.34;7405160;19;2182;-40
2023/02/19 06:40:06;;;;;;;;;;;;;;;18.71;64.45;101024.72;7404940;19;2183;-41
2023/02/19 06:42:34;;;;;;;;;;;;;;;18.88;63.60;101035.78;7404109;19;2085;-42
2023/02/19 06:45:03;;;;;;;;;;;;;;;19.47;62.04;101015.56;7405447;19;2030;-41
2023/02/19 06:47:32;;;;;;;;;;;;;;;19.64;61.55;101010.59;7405372;19;2025;-40
2023/02/19 06:50:03;;;;;;;;;;;;;;;19.29;62.35;101025.22;7405174;19;2094;-41
2023/02/19 06:52:31;;;;;;;;;;;;;;;18.98;63.61;101041.22;7404935;19;1788;-40
2023/02/19 06:55:00;;;;;;;;;;;;;;;18.75;63.73;101035.06;7395691;19;2044;-40
2023/02/19 06:57:28;;;;;;;;;;;;;;;19.15;62.65;101038.94;7404543;19;2020;-40
2023/02/19 06:59:56;;;;;;;;;;;;;;;19.58;60.72;101027.22;7406557;19;2073;-40
2023/02/19 07:02:25;;;;;;;;;;;;;;;19.51;59.47;101044.81;7401389;19;1877;-40
2023/02/19 07:04:53;;;;;;;;;;;;;;;19.21;61.25;101038.41;7404576;19;1376;-40
2023/02/19 07:07:24;;;;;;;;;;;;;;;18.97;61.10;101036.81;7401736;19;2230;-40
2023/02/19 07:09:52;;;;;;;;;;;;;;;18.80;61.71;101038.25;7403597;19;1938;-40
2023/02/19 07:12:20;;;;;;;;;;;;;;;19.27;59.32;101043.25;7403794;19;1741;-40
2023/02/19 07:14:49;;;;;;;;;;;;;;;19.72;57.26;101040.31;7401010;19;1829;-41
2023/02/19 07:17:17;;;;;;;;;;;;;;;19.22;58.17;101032.94;7403245;19;2223;-40
2023/02/19 07:19:45;;;;;;;;;;;;;;;19.08;58.90;101031.44;7396818;19;2000;-40
2023/02/19 07:22:14;;;;;;;;;;;;;;;18.91;59.63;101015.06;7393286;19;2588;-40
2023/02/19 07:24:44;;;;;;;;;;;;;;;19.08;59.56;101018.03;7402582;19;1876;-41
2023/02/19 07:27:13;;;;;;;;;;;;;;;19.71;57.86;101013.59;7401620;19;1808;-41
2023/02/19 07:29:41;;;;;;;;;;;;;;;19.52;58.35;101009.84;7402427;19;2109;-41
2023/02/19 07:32:09;;;;;;;;;;;;;;;19.30;59.92;101007.28;7401016;19;2124;-41
2023/02/19 07:34:37;;;;;;;;;;;;;;;19.08;60.65;101007.31;7400477;19;1842;-41
2023/02/19 07:37:06;;;;;;;;;;;;;;;18.95;60.68;101012.00;7402304;19;2081;-40
2023/02/19 07:39:34;;;;;;;;;;;;;;;19.34;59.49;101003.34;7400631;19;1824;-41
2023/02/19 07:42:05;;;;;;;;;;;;;;;19.81;58.04;100993.88;7399409;19;2056;-41
2023/02/19 07:44:33;;;;;;;;;;;;;;;19.11;59.03;100959.78;7397205;19;1993;-41
2023/02/19 07:47:02;;;;;;;;;;;;;;;19.24;60.14;100982.72;7405008;19;1722;-41
2023/02/19 07:49:30;;;;;;;;;;;;;;;19.11;60.53;100975.84;7400800;19;2077;-41
2023/02/19 07:51:58;;;;;;;;;;;;;;;19.17;60.50;100991.41;7399960;19;2096;-40
2023/02/19 07:54:26;;;;;;;;;;;;;;;19.74;59.01;100991.91;7402547;19;1751;-40
2023/02/19 07:56:55;;;;;;;;;;;;;;;19.74;58.59;101000.78;7401817;19;1719;-40
2023/02/19 07:59:26;;;;;;;;;;;;;;;19.51;59.88;101018.00;7401760;19;1889;-40
2023/02/19 08:04:35;;;;;;;;;;;;;;;19.14;61.04;101029.19;7403255;19;1721;-40
2023/02/19 08:07:04;;;;;;;;;;;;;;;18.82;59.80;101006.81;7401771;19;2949;-40
2023/02/19 08:09:32;;;;;;;;;;;;;;;18.53;57.14;101014.56;7400578;19;1714;-40
2023/02/19 08:14:44;;;;;;;;;;;;;;;18.23;51.23;101013.41;7397857;19;2306;-40
2023/02/19 08:17:12;;;;;;;;;;;;;;;18.16;52.78;100981.91;7400198;19;1800;-40
2023/02/19 08:19:40;;;;;;;;;;;;;;;18.14;55.04;101000.75;7401330;19;1963;-40
2023/02/19 08:22:08;;;;;;;;;;;;;;;18.18;57.05;101007.56;7403522;19;2039;-40
2023/02/19 08:24:41;;;;;;;;;;;;;;;18.11;53.03;100993.00;7401860;19;1912;-40
2023/02/19 08:27:10;;;;;;;;;;;;;;;18.03;49.91;101003.47;7402051;19;2050;-40
2023/02/19 08:29:38;;;;;;;;;;;;;;;17.98;52.74;101011.00;7402365;19;2103;-40
2023/02/19 08:32:09;;;;;;;;;;;;;;;17.95;49.77;101011.28;7402119;19;2056;-40
2023/02/19 08:34:38;;;;;;;;;;;;;;;17.96;55.02;101020.97;7402882;19;2055;-40
2023/02/19 08:37:06;;;;;;;;;;;;;;;17.97;53.24;100998.63;7400983;19;2051;-40
2023/02/19 08:39:34;;;;;;;;;;;;;;;18.01;54.16;101014.28;7401888;19;2106;-40
2023/02/19 08:42:03;;;;;;;;;;;;;;;17.96;53.51;101003.09;7401733;19;1993;-40
2023/02/19 08:44:31;;;;;;;;;;;;;;;17.94;54.04;101005.03;7403080;19;1119;-40
2023/02/19 08:46:59;;;;;;;;;;;;;;;17.89;51.63;100999.22;7399922;19;2139;-40
2023/02/19 08:49:30;;;;;;;;;;;;;;;17.78;52.64;100992.00;7401902;19;2006;-40
2023/02/19 08:51:58;;;;;;;;;;;;;;;17.73;49.64;101010.25;7400795;19;2178;-40
2023/02/19 08:54:27;;;;;;;;;;;;;;;17.68;51.04;101007.09;7401654;19;2099;-40
2023/02/19 08:56:55;;;;;;;;;;;;;;;17.64;49.46;101009.16;7400820;19;2005;-40
2023/02/19 08:59:23;;;;;;;;;;;;;;;17.62;51.15;101010.25;7401498;19;2071;-40
2023/02/19 09:01:52;;;;;;;;;;;;;;;17.58;49.26;100998.09;7402030;19;2200;-40
2023/02/19 09:04:20;;;;;;;;;;;;;;;17.57;53.46;100991.06;7399903;19;1980;-40
2023/02/19 09:06:51;;;;;;;;;;;;;;;17.61;51.43;101003.22;7401576;19;2152;-40
2023/02/19 09:09:20;;;;;;;;;;;;;;;17.61;53.17;100987.16;7401295;19;2038;-40
2023/02/19 09:11:48;;;;;;;;;;;;;;;17.61;51.17;100971.97;7400395;19;2104;-40
2023/02/19 09:14:17;;;;;;;;;;;;;;;17.61;51.14;100987.16;7401683;19;2020;-40
2023/02/19 09:16:45;;;;;;;;;;;;;;;17.63;49.41;100995.91;7400911;19;2134;-40
2023/02/19 09:19:13;;;;;;;;;;;;;;;17.63;49.33;100991.41;7400391;19;1881;-40
2023/02/19 09:21:42;;;;;;;;;;;;;;;17.60;48.88;101001.50;7400694;19;2036;-40
2023/02/19 09:24:12;;;;;;;;;;;;;;;17.61;49.11;100981.81;7399386;19;2056;-40
2023/02/19 09:26:41;;;;;;;;;;;;;;;17.60;49.37;100974.75;7400239;19;1955;-40
2023/02/19 09:29:09;;;;;;;;;;;;;;;17.67;51.46;100982.19;7401248;19;2027;-40
2023/02/19 09:31:37;;;;;;;;;;;;;;;17.73;52.65;100978.16;7400862;19;2139;-40
2023/02/19 09:34:07;;;;;;;;;;;;;;;17.78;52.42;100973.28;7400808;19;1911;-40
2023/02/19 09:36:35;;;;;;;;;;;;;;;17.73;51.13;100977.31;7398172;19;2114;-40
2023/02/19 09:39:07;;;;;;;;;;;;;;;17.74;52.63;100977.19;7398501;19;2062;-40
2023/02/19 09:41:40;;;;;;;;;;;;;;;17.77;52.19;100974.28;7399989;19;2043;-40
2023/02/19 09:44:11;;;;;;;;;;;;;;;17.72;49.79;100971.09;7399356;19;1979;-40
2023/02/19 09:46:43;;;;;;;;;;;;;;;17.68;52.28;100966.97;7400631;19;2052;-40
2023/02/19 09:49:14;;;;;;;;;;;;;;;17.69;48.90;100968.69;7401148;19;2086;-40
2023/02/19 09:51:45;;;;;;;;;;;;;;;17.73;48.56;100980.84;7400184;19;1823;-40
2023/02/19 09:54:19;;;;;;;;;;;;;;;17.74;50.30;100963.81;7400099;19;2042;-40
2023/02/19 09:56:50;;;;;;;;;;;;;;;17.72;49.94;100951.53;7400566;19;2028;-40
2023/02/19 09:59:21;;;;;;;;;;;;;;;17.72;51.49;100973.78;7400840;19;2017;-40
2023/02/19 10:01:50;;;;;;;;;;;;;;;17.72;50.63;100956.88;7400234;19;1928;-40
2023/02/19 10:04:19;;;;;;;;;;;;;;;17.79;51.55;100964.31;7398778;19;2165;-40
2023/02/19 10:06:48;;;;;;;;;;;;;;;17.76;50.77;100969.88;7399815;19;2239;-40
2023/02/19 10:09:21;;;;;;;;;;;;;;;17.73;51.21;100962.13;7400104;19;2038;-40
2023/02/19 10:11:53;;;;;;;;;;;;;;;17.78;50.85;100954.56;7399197;19;1857;-40
2023/02/19 10:14:24;;;;;;;;;;;;;;;17.79;50.81;100958.94;7400166;19;2129;-40
2023/02/19 10:16:53;;;;;;;;;;;;;;;17.81;51.05;100973.06;7398402;19;1948;-40
2023/02/19 10:19:21;;;;;;;;;;;;;;;17.79;51.62;100952.75;7399086;19;1867;-40
2023/02/19 10:21:49;;;;;;;;;;;;;;;17.74;49.40;100934.38;7398705;19;1951;-40
2023/02/19 10:24:21;;;;;;;;;;;;;;;17.79;51.56;100953.59;7397780;19;1857;-40
2023/02/19 10:26:52;;;;;;;;;;;;;;;17.84;51.40;100935.38;7398865;19;2047;-40
2023/02/19 10:29:21;;;;;;;;;;;;;;;17.84;50.77;100924.66;7399700;19;2146;-40
2023/02/19 10:31:50;;;;;;;;;;;;;;;17.86;51.33;100924.56;7399840;19;2093;-40
2023/02/19 10:34:20;;;;;;;;;;;;;;;17.89;49.79;100916.28;7395495;19;2171;-40
2023/02/19 10:36:50;;;;;;;;;;;;;;;17.96;49.99;100921.97;7395597;19;1987;-40
2023/02/19 10:39:40;;;;;;;;;;;;;;;17.96;50.29;100917.47;7400216;19;1837;-40
2023/02/19 10:42:18;;;;;;;;;;;;;;;18.06;50.99;100918.44;7405081;19;1837;-40
2023/02/19 10:44:47;;;;;;;;;;;;;;;18.19;50.90;100917.44;7402888;19;1971;-40
2023/02/19 10:47:20;;;;;;;;;;;;;;;18.87;49.80;100901.94;7403377;19;2143;-40
2023/02/19 10:49:50;;;;;;;;;;;;;;;19.69;48.07;100892.97;7406838;19;1974;-40
2023/02/19 10:52:21;;;;;;;;;;;;;;;20.13;47.58;100895.34;7404457;19;1959;-40
2023/02/19 10:54:52;;;;;;;;;;;;;;;19.74;47.87;100882.72;7405290;19;2058;-40
2023/02/19 10:57:36;;;;;;;;;;;;;;;19.04;50.14;100887.09;7404397;19;2052;-40
2023/02/19 11:00:21;;;;;;;;;;;;;;;19.23;50.32;100870.22;7404733;19;1957;-40
2023/02/19 11:02:50;;;;;;;;;;;;;;;19.71;49.28;100858.84;7403832;19;1872;-40
2023/02/19 11:05:20;;;;;;;;;;;;;;;19.84;48.29;100859.44;7405190;19;2061;-40
2023/02/19 11:07:49;;;;;;;;;;;;;;;19.92;48.30;100848.03;7405576;19;2500;-40
2023/02/19 11:10:27;;;;;;;;;;;;;;;19.94;48.78;100874.72;7404896;19;2200;-40
2023/02/19 11:13:00;;;;;;;;;;;;;;;19.99;49.00;100856.34;7405303;19;1886;-40
2023/02/19 11:15:30;;;;;;;;;;;;;;;20.01;49.08;100863.25;7404535;19;2277;-40
2023/02/19 11:18:00;;;;;;;;;;;;;;;20.03;49.17;100873.88;7405106;19;2009;-40
2023/02/19 11:20:30;;;;;;;;;;;;;;;20.03;49.06;100868.50;7405206;19;2011;-40
2023/02/19 11:23:01;;;;;;;;;;;;;;;20.07;49.33;100861.88;7404880;19;1992;-40
2023/02/19 11:25:29;;;;;;;;;;;;;;;20.04;49.63;100864.84;7403442;19;2146;-40
2023/02/19 11:28:05;;;;;;;;;;;;;;;20.10;49.42;100850.84;7401913;19;1917;-40
2023/02/19 11:30:41;;;;;;;;;;;;;;;20.10;49.31;100853.53;7403684;19;2139;-40
2023/02/19 11:33:26;;;;;;;;;;;;;;;20.12;49.09;100851.56;7403212;19;2243;-40
2023/02/19 11:35:59;;;;;;;;;;;;;;;20.29;49.31;100843.78;7401535;19;2063;-39
2023/02/19 11:38:27;;;;;;;;;;;;;;;20.27;49.59;100849.28;7404231;19;2035;-40
2023/02/19 11:41:02;;;;;;;;;;;;;;;20.27;49.60;100828.69;7404542;19;1933;-40
2023/02/19 11:43:50;;;;;;;;;;;;;;;20.28;50.10;100840.25;7403724;19;2062;-40
2023/02/19 11:46:23;;;;;;;;;;;;;;;20.33;49.51;100842.50;7402895;19;2133;-40
2023/02/19 11:48:56;;;;;;;;;;;;;;;20.33;50.17;100850.56;7403240;19;2003;-40
2023/02/19 11:51:32;;;;;;;;;;;;;;;19.90;51.31;100857.22;7400044;19;2004;-40
2023/02/19 11:54:05;;;;;;;;;;;;;;;19.39;52.32;100867.91;7403206;19;1795;-40
2023/02/19 11:56:35;;;;;;;;;;;;;;;19.11;53.15;100853.38;7402548;19;1950;-40
2023/02/19 11:59:07;;;;;;;;;;;;;;;18.95;53.28;100851.19;7403387;19;1959;-40
2023/02/19 12:01:46;;;;;;;;;;;;;;;18.87;53.59;100833.09;7403692;19;1756;-40
2023/02/19 12:04:35;;;;;;;;;;;;;;;18.77;54.08;100847.41;7402266;19;1962;-40
2023/02/19 12:07:10;;;;;;;;;;;;;;;18.67;55.22;100824.06;7403609;19;1746;-40
2023/02/19 12:09:45;;;;;;;;;;;;;;;18.68;55.71;100836.50;7403093;19;2053;-40
2023/02/19 12:12:24;;;;;;;;;;;;;;;18.79;55.90;100818.66;7402825;19;2004;-40
2023/02/19 12:15:10;;;;;;;;;;;;;;;18.81;55.84;100822.06;7402512;19;2071;-40
2023/02/19 12:17:47;;;;;;;;;;;;;;;18.65;56.29;100812.66;7403537;19;1754;-40
2023/02/19 12:20:21;;;;;;;;;;;;;;;18.68;56.40;100811.53;7400834;19;1765;-40
2023/02/19 12:22:56;;;;;;;;;;;;;;;18.87;56.16;100810.81;7400071;19;2192;-40
2023/02/19 12:25:30;;;;;;;;;;;;;;;18.96;55.88;100812.72;7399155;19;2117;-40
2023/02/19 12:28:10;;;;;;;;;;;;;;;18.94;56.37;100805.78;7401460;19;2026;-40
2023/02/19 12:30:47;;;;;;;;;;;;;;;18.81;56.74;100804.16;7401041;19;1775;-40
2023/02/19 12:33:31;;;;;;;;;;;;;;;18.82;57.05;100807.69;7402317;19;2024;-40
2023/02/19 12:36:06;;;;;;;;;;;;;;;18.95;57.36;100800.28;7401160;19;1917;-40
2023/02/19 12:38:37;;;;;;;;;;;;;;;19.01;57.13;100791.69;7401960;19;2145;-40
2023/02/19 12:41:12;;;;;;;;;;;;;;;18.82;58.06;100786.25;7401686;19;2055;-40
2023/02/19 12:43:43;;;;;;;;;;;;;;;18.67;58.53;100778.53;7401686;19;2089;-40
2023/02/19 12:46:14;;;;;;;;;;;;;;;18.58;58.81;100790.06;7401725;19;1848;-40
2023/02/19 12:48:45;;;;;;;;;;;;;;;18.58;59.24;100787.38;7401926;19;1804;-40
2023/02/19 12:51:21;;;;;;;;;;;;;;;18.55;59.28;100792.16;7399687;19;1805;-40
2023/02/19 12:53:50;;;;;;;;;;;;;;;18.50;59.86;100789.84;7400381;19;1813;-40
2023/02/19 12:56:20;;;;;;;;;;;;;;;18.55;59.75;100787.63;7400263;19;2101;-40
2023/02/19 12:58:50;;;;;;;;;;;;;;;18.51;59.63;100782.69;7400580;19;1842;-39
2023/02/19 13:01:21;;;;;;;;;;;;;;;18.53;60.02;100794.13;7399061;19;1758;-40
2023/02/19 13:03:52;;;;;;;;;;;;;;;18.45;59.56;100784.06;7401365;19;1853;-40
2023/02/19 13:06:29;;;;;;;;;;;;;;;18.44;60.04;100771.63;7400354;19;1999;-40
2023/02/19 13:08:59;;;;;;;;;;;;;;;18.43;60.03;100767.28;7401327;19;2053;-40
2023/02/19 13:11:31;;;;;;;;;;;;;;;18.42;59.90;100755.72;7401402;19;2001;-40
2023/02/19 13:14:01;;;;;;;;;;;;;;;18.40;59.98;100748.78;7401551;19;1214;-40
2023/02/19 13:16:33;;;;;;;;;;;;;;;18.37;59.81;100760.63;7400431;19;1747;-40
2023/02/19 13:19:02;;;;;;;;;;;;;;;18.37;59.85;100757.94;7399754;19;1873;-40
2023/02/19 13:24:18;;;;;;;;;;;;;;;18.23;60.65;100745.72;7396171;19;1875;-40
2023/02/19 13:26:53;;;;;;;;;;;;;;;18.24;60.75;100743.91;7399588;19;1768;-40
2023/02/19 13:29:28;;;;;;;;;;;;;;;18.22;60.38;100745.84;7398456;19;1745;-40
2023/02/19 13:32:07;;;;;;;;;;;;;;;18.19;60.26;100746.97;7398860;19;1815;-40
2023/02/19 13:34:43;;;;;;;;;;;;;;;18.11;60.88;100736.09;7397734;19;1768;-40